Main page
METAR-TAF:

Airports :

Istanbul Atatürk, Turkey

Istanbul Atatürk Airport

latitude: 40-58N, longitude: 028-49E, elevation: 48 m

Current weather observation

The report was made 24 minutes ago, at 05:50 UTC
Wind 6 kt from the South, varying between South/Southeast and Southwest
Temperature 25°C
Humidity 79%
Pressure 1016 hPa
Visibility 10 km or more
no clouds below 1500 m and no cumulonimbus

METAR: LTBA 010550Z 19006KT 150V220 CAVOK 25/21 Q1016 NOSIG

Time: 09:14 (06:14 UTC)

Forecast

The report was made 1 hour and 34 minutes ago, at 04:40 UTC
Forecast valid from 01 at 06 UTC to 02 at 12 UTC
Wind 2 kt from variable directions
Visibility 10 km or more
no clouds below 1500 m and no cumulonimbus
Becoming
from 01 at 10 UTC to 01 at 13 UTC
Wind 12 kt from the North/Northeast
Probability 30%
from 02 at 01 UTC to 02 at 05 UTC
Visibility: 4000 m
mist

TAF: LTBA 010440Z 0106/0212 VRB02KT CAVOK BECMG 0110/0113 02012KT PROB30 0201/0205 4000 BR

METAR-TAF

Weather observations and forecasts of more than 4000 airports (METAR and TAF reports).

The available stations are represented by yellow and red dots on the map.

Hover mouse over dot to see the name of the station.

Then click to see weather observations and forecasts.

To change the map : click on the green buttons with a black cross to zoom in, on the green button with a dash to zoom out, or on the green arrows for adjacent maps.


METAR-TAF: